sensor_id;sensor_type;location;lat;lon;timestamp;temperature
56484;DS18B20;42385;0.000;0.000;2022-08-06T00:01:36;25.56
56484;DS18B20;42385;0.000;0.000;2022-08-06T00:04:39;25.50
56484;DS18B20;42385;0.000;0.000;2022-08-06T00:07:43;25.44
56484;DS18B20;42385;0.000;0.000;2022-08-06T00:10:49;25.44
56484;DS18B20;42385;0.000;0.000;2022-08-06T00:13:51;25.50
56484;DS18B20;42385;0.000;0.000;2022-08-06T00:16:58;25.56
56484;DS18B20;42385;0.000;0.000;2022-08-06T00:20:00;25.50
56484;DS18B20;42385;0.000;0.000;2022-08-06T00:23:04;25.38
56484;DS18B20;42385;0.000;0.000;2022-08-06T00:26:17;25.44
56484;DS18B20;42385;0.000;0.000;2022-08-06T00:29:20;25.38
56484;DS18B20;42385;0.000;0.000;2022-08-06T00:32:33;25.50
56484;DS18B20;42385;0.000;0.000;2022-08-06T00:35:36;25.38
56484;DS18B20;42385;0.000;0.000;2022-08-06T00:38:39;25.31
56484;DS18B20;42385;0.000;0.000;2022-08-06T00:41:41;25.38
56484;DS18B20;42385;0.000;0.000;2022-08-06T00:44:47;25.38
56484;DS18B20;42385;0.000;0.000;2022-08-06T00:47:50;25.31
56484;DS18B20;42385;0.000;0.000;2022-08-06T00:51:07;25.25
56484;DS18B20;42385;0.000;0.000;2022-08-06T00:54:20;25.19
56484;DS18B20;42385;0.000;0.000;2022-08-06T00:57:36;25.25
56484;DS18B20;42385;0.000;0.000;2022-08-06T01:00:39;25.13
56484;DS18B20;42385;0.000;0.000;2022-08-06T01:03:46;25.13
56484;DS18B20;42385;0.000;0.000;2022-08-06T01:06:53;25.06
56484;DS18B20;42385;0.000;0.000;2022-08-06T01:10:00;25.00
56484;DS18B20;42385;0.000;0.000;2022-08-06T01:13:02;25.19
56484;DS18B20;42385;0.000;0.000;2022-08-06T01:19:42;25.06
56484;DS18B20;42385;0.000;0.000;2022-08-06T01:29:37;25.06
56484;DS18B20;42385;0.000;0.000;2022-08-06T01:32:58;24.88
56484;DS18B20;42385;0.000;0.000;2022-08-06T01:36:16;24.94
56484;DS18B20;42385;0.000;0.000;2022-08-06T01:39:20;24.88
56484;DS18B20;42385;0.000;0.000;2022-08-06T01:42:44;24.81
56484;DS18B20;42385;0.000;0.000;2022-08-06T01:45:56;24.81
56484;DS18B20;42385;0.000;0.000;2022-08-06T01:49:01;24.88
56484;DS18B20;42385;0.000;0.000;2022-08-06T01:52:24;24.56
56484;DS18B20;42385;0.000;0.000;2022-08-06T01:55:35;24.69
56484;DS18B20;42385;0.000;0.000;2022-08-06T01:59:00;24.88
56484;DS18B20;42385;0.000;0.000;2022-08-06T02:02:15;24.69
56484;DS18B20;42385;0.000;0.000;2022-08-06T02:05:20;24.69
56484;DS18B20;42385;0.000;0.000;2022-08-06T02:08:24;24.75
56484;DS18B20;42385;0.000;0.000;2022-08-06T02:11:48;24.75
56484;DS18B20;42385;0.000;0.000;2022-08-06T02:15:16;24.69
56484;DS18B20;42385;0.000;0.000;2022-08-06T02:18:23;24.44
56484;DS18B20;42385;0.000;0.000;2022-08-06T02:21:38;24.63
56484;DS18B20;42385;0.000;0.000;2022-08-06T02:24:46;24.63
56484;DS18B20;42385;0.000;0.000;2022-08-06T02:27:51;24.69
56484;DS18B20;42385;0.000;0.000;2022-08-06T02:31:00;24.69
56484;DS18B20;42385;0.000;0.000;2022-08-06T02:34:06;24.50
56484;DS18B20;42385;0.000;0.000;2022-08-06T02:38:00;24.44
56484;DS18B20;42385;0.000;0.000;2022-08-06T02:41:20;24.56
56484;DS18B20;42385;0.000;0.000;2022-08-06T02:51:31;24.56
56484;DS18B20;42385;0.000;0.000;2022-08-06T02:54:59;24.50
56484;DS18B20;42385;0.000;0.000;2022-08-06T02:58:55;24.50
56484;DS18B20;42385;0.000;0.000;2022-08-06T03:01:43;24.50
56484;DS18B20;42385;0.000;0.000;2022-08-06T03:04:52;24.44
56484;DS18B20;42385;0.000;0.000;2022-08-06T03:07:58;24.44
56484;DS18B20;42385;0.000;0.000;2022-08-06T03:11:02;24.38
56484;DS18B20;42385;0.000;0.000;2022-08-06T03:14:07;24.13
56484;DS18B20;42385;0.000;0.000;2022-08-06T03:17:32;24.31
56484;DS18B20;42385;0.000;0.000;2022-08-06T03:20:36;24.31
56484;DS18B20;42385;0.000;0.000;2022-08-06T03:23:39;24.31
56484;DS18B20;42385;0.000;0.000;2022-08-06T03:26:43;24.31
56484;DS18B20;42385;0.000;0.000;2022-08-06T03:29:46;24.25
56484;DS18B20;42385;0.000;0.000;2022-08-06T03:33:09;24.31
56484;DS18B20;42385;0.000;0.000;2022-08-06T03:36:32;23.75
56484;DS18B20;42385;0.000;0.000;2022-08-06T03:39:39;24.13
56484;DS18B20;42385;0.000;0.000;2022-08-06T03:42:42;24.06
56484;DS18B20;42385;0.000;0.000;2022-08-06T03:45:50;23.94
56484;DS18B20;42385;0.000;0.000;2022-08-06T03:48:59;24.13
56484;DS18B20;42385;0.000;0.000;2022-08-06T03:52:03;24.06
56484;DS18B20;42385;0.000;0.000;2022-08-06T03:55:12;24.25
56484;DS18B20;42385;0.000;0.000;2022-08-06T03:58:24;24.19
56484;DS18B20;42385;0.000;0.000;2022-08-06T04:01:34;24.06
56484;DS18B20;42385;0.000;0.000;2022-08-06T04:04:52;24.13
56484;DS18B20;42385;0.000;0.000;2022-08-06T04:07:59;24.00
56484;DS18B20;42385;0.000;0.000;2022-08-06T04:11:12;23.94
56484;DS18B20;42385;0.000;0.000;2022-08-06T04:14:35;23.69
56484;DS18B20;42385;0.000;0.000;2022-08-06T04:17:52;24.00
56484;DS18B20;42385;0.000;0.000;2022-08-06T04:21:08;23.88
56484;DS18B20;42385;0.000;0.000;2022-08-06T04:24:33;23.81
56484;DS18B20;42385;0.000;0.000;2022-08-06T04:27:41;23.75
56484;DS18B20;42385;0.000;0.000;2022-08-06T04:30:58;23.63
56484;DS18B20;42385;0.000;0.000;2022-08-06T04:34:02;23.31
56484;DS18B20;42385;0.000;0.000;2022-08-06T04:37:14;23.56
56484;DS18B20;42385;0.000;0.000;2022-08-06T04:40:17;23.69
56484;DS18B20;42385;0.000;0.000;2022-08-06T04:43:35;23.69
56484;DS18B20;42385;0.000;0.000;2022-08-06T04:46:54;23.63
56484;DS18B20;42385;0.000;0.000;2022-08-06T04:49:56;23.69
56484;DS18B20;42385;0.000;0.000;2022-08-06T04:53:12;23.75
56484;DS18B20;42385;0.000;0.000;2022-08-06T04:56:31;23.69
56484;DS18B20;42385;0.000;0.000;2022-08-06T04:59:38;23.88
56484;DS18B20;42385;0.000;0.000;2022-08-06T05:02:52;23.69
56484;DS18B20;42385;0.000;0.000;2022-08-06T05:06:10;23.75
56484;DS18B20;42385;0.000;0.000;2022-08-06T05:09:20;23.63
56484;DS18B20;42385;0.000;0.000;2022-08-06T05:12:46;23.38
56484;DS18B20;42385;0.000;0.000;2022-08-06T05:15:55;23.69
56484;DS18B20;42385;0.000;0.000;2022-08-06T05:19:00;23.81
56484;DS18B20;42385;0.000;0.000;2022-08-06T05:22:24;23.75
56484;DS18B20;42385;0.000;0.000;2022-08-06T05:25:48;23.63
56484;DS18B20;42385;0.000;0.000;2022-08-06T05:28:57;23.69
56484;DS18B20;42385;0.000;0.000;2022-08-06T05:31:59;23.63
56484;DS18B20;42385;0.000;0.000;2022-08-06T05:35:04;23.63
56484;DS18B20;42385;0.000;0.000;2022-08-06T05:38:08;23.56
56484;DS18B20;42385;0.000;0.000;2022-08-06T05:41:12;23.31
56484;DS18B20;42385;0.000;0.000;2022-08-06T05:44:14;23.50
56484;DS18B20;42385;0.000;0.000;2022-08-06T05:47:20;22.63
56484;DS18B20;42385;0.000;0.000;2022-08-06T05:50:28;22.88
56484;DS18B20;42385;0.000;0.000;2022-08-06T05:53:40;22.56
56484;DS18B20;42385;0.000;0.000;2022-08-06T05:57:15;22.69
56484;DS18B20;42385;0.000;0.000;2022-08-06T06:00:35;23.13
56484;DS18B20;42385;0.000;0.000;2022-08-06T06:03:45;23.00
56484;DS18B20;42385;0.000;0.000;2022-08-06T06:06:51;23.13
56484;DS18B20;42385;0.000;0.000;2022-08-06T06:09:55;23.06
56484;DS18B20;42385;0.000;0.000;2022-08-06T06:13:05;22.69
56484;DS18B20;42385;0.000;0.000;2022-08-06T06:16:34;22.69
56484;DS18B20;42385;0.000;0.000;2022-08-06T06:19:49;23.00
56484;DS18B20;42385;0.000;0.000;2022-08-06T06:23:21;23.31
56484;DS18B20;42385;0.000;0.000;2022-08-06T06:27:03;22.94
56484;DS18B20;42385;0.000;0.000;2022-08-06T06:34:08;22.81
56484;DS18B20;42385;0.000;0.000;2022-08-06T06:37:39;22.81
56484;DS18B20;42385;0.000;0.000;2022-08-06T06:40:47;23.31
56484;DS18B20;42385;0.000;0.000;2022-08-06T06:44:12;23.19
56484;DS18B20;42385;0.000;0.000;2022-08-06T06:50:51;23.25
56484;DS18B20;42385;0.000;0.000;2022-08-06T06:53:55;23.56
56484;DS18B20;42385;0.000;0.000;2022-08-06T06:57:11;23.38
56484;DS18B20;42385;0.000;0.000;2022-08-06T07:00:18;23.44
56484;DS18B20;42385;0.000;0.000;2022-08-06T07:03:43;23.19
56484;DS18B20;42385;0.000;0.000;2022-08-06T07:06:47;23.50
56484;DS18B20;42385;0.000;0.000;2022-08-06T07:09:58;23.25
56484;DS18B20;42385;0.000;0.000;2022-08-06T07:13:04;23.69
56484;DS18B20;42385;0.000;0.000;2022-08-06T07:16:25;23.81
56484;DS18B20;42385;0.000;0.000;2022-08-06T07:19:37;23.75
56484;DS18B20;42385;0.000;0.000;2022-08-06T07:22:47;23.75
56484;DS18B20;42385;0.000;0.000;2022-08-06T07:26:13;23.69
56484;DS18B20;42385;0.000;0.000;2022-08-06T07:29:16;23.50
56484;DS18B20;42385;0.000;0.000;2022-08-06T07:32:39;23.75
56484;DS18B20;42385;0.000;0.000;2022-08-06T07:35:51;23.94
56484;DS18B20;42385;0.000;0.000;2022-08-06T07:38:59;24.50
56484;DS18B20;42385;0.000;0.000;2022-08-06T07:42:08;24.50
56484;DS18B20;42385;0.000;0.000;2022-08-06T07:45:13;24.31
56484;DS18B20;42385;0.000;0.000;2022-08-06T07:48:42;24.25
56484;DS18B20;42385;0.000;0.000;2022-08-06T07:51:55;24.25
56484;DS18B20;42385;0.000;0.000;2022-08-06T07:54:59;24.31
56484;DS18B20;42385;0.000;0.000;2022-08-06T07:58:04;24.25
56484;DS18B20;42385;0.000;0.000;2022-08-06T08:01:07;24.31
56484;DS18B20;42385;0.000;0.000;2022-08-06T08:04:09;24.31
56484;DS18B20;42385;0.000;0.000;2022-08-06T08:07:53;24.44
56484;DS18B20;42385;0.000;0.000;2022-08-06T08:10:59;24.69
56484;DS18B20;42385;0.000;0.000;2022-08-06T08:14:04;24.88
56484;DS18B20;42385;0.000;0.000;2022-08-06T08:17:08;24.94
56484;DS18B20;42385;0.000;0.000;2022-08-06T08:20:11;25.13
56484;DS18B20;42385;0.000;0.000;2022-08-06T08:23:21;25.06
56484;DS18B20;42385;0.000;0.000;2022-08-06T08:26:35;25.00
56484;DS18B20;42385;0.000;0.000;2022-08-06T08:29:57;25.13
56484;DS18B20;42385;0.000;0.000;2022-08-06T08:33:00;25.13
56484;DS18B20;42385;0.000;0.000;2022-08-06T08:36:06;25.25
56484;DS18B20;42385;0.000;0.000;2022-08-06T08:39:12;25.31
56484;DS18B20;42385;0.000;0.000;2022-08-06T08:42:19;25.38
56484;DS18B20;42385;0.000;0.000;2022-08-06T08:45:34;25.44
56484;DS18B20;42385;0.000;0.000;2022-08-06T08:48:38;25.38
56484;DS18B20;42385;0.000;0.000;2022-08-06T08:51:41;25.38
56484;DS18B20;42385;0.000;0.000;2022-08-06T08:54:48;25.50
56484;DS18B20;42385;0.000;0.000;2022-08-06T08:57:52;25.63
56484;DS18B20;42385;0.000;0.000;2022-08-06T09:01:15;25.56
56484;DS18B20;42385;0.000;0.000;2022-08-06T09:04:39;25.69
56484;DS18B20;42385;0.000;0.000;2022-08-06T09:07:42;25.69
56484;DS18B20;42385;0.000;0.000;2022-08-06T09:11:03;25.50
56484;DS18B20;42385;0.000;0.000;2022-08-06T09:14:21;25.44
56484;DS18B20;42385;0.000;0.000;2022-08-06T09:17:34;25.38
56484;DS18B20;42385;0.000;0.000;2022-08-06T09:20:59;25.69
56484;DS18B20;42385;0.000;0.000;2022-08-06T09:24:07;25.63
56484;DS18B20;42385;0.000;0.000;2022-08-06T09:27:11;25.69
56484;DS18B20;42385;0.000;0.000;2022-08-06T09:30:33;25.69
56484;DS18B20;42385;0.000;0.000;2022-08-06T09:33:40;25.81
56484;DS18B20;42385;0.000;0.000;2022-08-06T09:37:02;25.63
56484;DS18B20;42385;0.000;0.000;2022-08-06T09:40:13;25.69
56484;DS18B20;42385;0.000;0.000;2022-08-06T09:43:26;25.63
56484;DS18B20;42385;0.000;0.000;2022-08-06T09:46:49;25.63
56484;DS18B20;42385;0.000;0.000;2022-08-06T09:49:53;25.56
56484;DS18B20;42385;0.000;0.000;2022-08-06T09:53:02;25.63
56484;DS18B20;42385;0.000;0.000;2022-08-06T09:56:16;25.63
56484;DS18B20;42385;0.000;0.000;2022-08-06T09:59:19;25.69
56484;DS18B20;42385;0.000;0.000;2022-08-06T10:02:22;25.69
56484;DS18B20;42385;0.000;0.000;2022-08-06T10:05:34;25.69
56484;DS18B20;42385;0.000;0.000;2022-08-06T10:09:08;25.75
56484;DS18B20;42385;0.000;0.000;2022-08-06T10:12:31;25.81
56484;DS18B20;42385;0.000;0.000;2022-08-06T10:15:34;25.75
56484;DS18B20;42385;0.000;0.000;2022-08-06T10:18:58;25.94
56484;DS18B20;42385;0.000;0.000;2022-08-06T10:22:20;25.75
56484;DS18B20;42385;0.000;0.000;2022-08-06T10:25:29;25.81
56484;DS18B20;42385;0.000;0.000;2022-08-06T10:28:48;25.94
56484;DS18B20;42385;0.000;0.000;2022-08-06T10:31:53;25.94
56484;DS18B20;42385;0.000;0.000;2022-08-06T10:34:56;26.19
56484;DS18B20;42385;0.000;0.000;2022-08-06T10:38:06;25.81
56484;DS18B20;42385;0.000;0.000;2022-08-06T10:41:15;25.94
56484;DS18B20;42385;0.000;0.000;2022-08-06T10:44:39;25.81
56484;DS18B20;42385;0.000;0.000;2022-08-06T10:47:45;25.69
56484;DS18B20;42385;0.000;0.000;2022-08-06T10:51:09;25.69
56484;DS18B20;42385;0.000;0.000;2022-08-06T10:54:12;25.75
56484;DS18B20;42385;0.000;0.000;2022-08-06T10:57:22;25.94
56484;DS18B20;42385;0.000;0.000;2022-08-06T11:00:37;25.88
56484;DS18B20;42385;0.000;0.000;2022-08-06T11:03:57;25.94
56484;DS18B20;42385;0.000;0.000;2022-08-06T11:07:10;25.81
56484;DS18B20;42385;0.000;0.000;2022-08-06T11:14:05;25.88
56484;DS18B20;42385;0.000;0.000;2022-08-06T11:17:20;25.81
56484;DS18B20;42385;0.000;0.000;2022-08-06T11:23:34;25.94
56484;DS18B20;42385;0.000;0.000;2022-08-06T11:26:56;26.31
56484;DS18B20;42385;0.000;0.000;2022-08-06T11:30:12;26.31
56484;DS18B20;42385;0.000;0.000;2022-08-06T11:33:19;26.25
56484;DS18B20;42385;0.000;0.000;2022-08-06T11:36:26;26.38
56484;DS18B20;42385;0.000;0.000;2022-08-06T11:39:29;26.06
56484;DS18B20;42385;0.000;0.000;2022-08-06T11:42:48;26.13
56484;DS18B20;42385;0.000;0.000;2022-08-06T11:49:39;26.06
56484;DS18B20;42385;0.000;0.000;2022-08-06T11:52:45;26.13
56484;DS18B20;42385;0.000;0.000;2022-08-06T11:56:04;26.25
56484;DS18B20;42385;0.000;0.000;2022-08-06T11:59:14;26.06
56484;DS18B20;42385;0.000;0.000;2022-08-06T12:05:48;26.56
56484;DS18B20;42385;0.000;0.000;2022-08-06T12:09:12;26.50
56484;DS18B20;42385;0.000;0.000;2022-08-06T12:12:35;26.13
56484;DS18B20;42385;0.000;0.000;2022-08-06T12:15:39;26.25
56484;DS18B20;42385;0.000;0.000;2022-08-06T12:19:04;26.31
56484;DS18B20;42385;0.000;0.000;2022-08-06T12:22:09;26.56
56484;DS18B20;42385;0.000;0.000;2022-08-06T12:25:13;26.69
56484;DS18B20;42385;0.000;0.000;2022-08-06T12:28:18;27.00
56484;DS18B20;42385;0.000;0.000;2022-08-06T12:31:32;27.13
56484;DS18B20;42385;0.000;0.000;2022-08-06T12:34:45;27.19
56484;DS18B20;42385;0.000;0.000;2022-08-06T12:38:00;27.19
56484;DS18B20;42385;0.000;0.000;2022-08-06T12:41:07;27.13
56484;DS18B20;42385;0.000;0.000;2022-08-06T12:44:13;27.00
56484;DS18B20;42385;0.000;0.000;2022-08-06T12:47:29;26.88
56484;DS18B20;42385;0.000;0.000;2022-08-06T12:51:08;27.13
56484;DS18B20;42385;0.000;0.000;2022-08-06T12:54:16;27.19
56484;DS18B20;42385;0.000;0.000;2022-08-06T12:57:28;27.19
56484;DS18B20;42385;0.000;0.000;2022-08-06T13:00:57;27.25
56484;DS18B20;42385;0.000;0.000;2022-08-06T13:04:06;27.25
56484;DS18B20;42385;0.000;0.000;2022-08-06T13:07:17;27.25
56484;DS18B20;42385;0.000;0.000;2022-08-06T13:10:22;27.31
56484;DS18B20;42385;0.000;0.000;2022-08-06T13:13:41;27.38
56484;DS18B20;42385;0.000;0.000;2022-08-06T13:17:12;27.31
56484;DS18B20;42385;0.000;0.000;2022-08-06T13:20:39;27.31
56484;DS18B20;42385;0.000;0.000;2022-08-06T13:23:46;27.31
56484;DS18B20;42385;0.000;0.000;2022-08-06T13:26:52;27.31
56484;DS18B20;42385;0.000;0.000;2022-08-06T13:30:00;27.38
56484;DS18B20;42385;0.000;0.000;2022-08-06T13:33:24;27.38
56484;DS18B20;42385;0.000;0.000;2022-08-06T13:36:27;27.50
56484;DS18B20;42385;0.000;0.000;2022-08-06T13:39:34;27.56
56484;DS18B20;42385;0.000;0.000;2022-08-06T13:42:54;27.38
56484;DS18B20;42385;0.000;0.000;2022-08-06T13:46:17;27.44
56484;DS18B20;42385;0.000;0.000;2022-08-06T13:49:28;27.50
56484;DS18B20;42385;0.000;0.000;2022-08-06T13:52:36;27.50
56484;DS18B20;42385;0.000;0.000;2022-08-06T13:55:44;27.38
56484;DS18B20;42385;0.000;0.000;2022-08-06T13:59:04;27.50
56484;DS18B20;42385;0.000;0.000;2022-08-06T14:02:07;27.56
56484;DS18B20;42385;0.000;0.000;2022-08-06T14:05:10;27.38
56484;DS18B20;42385;0.000;0.000;2022-08-06T14:08:24;27.31
56484;DS18B20;42385;0.000;0.000;2022-08-06T14:11:36;27.56
56484;DS18B20;42385;0.000;0.000;2022-08-06T14:14:39;27.50
56484;DS18B20;42385;0.000;0.000;2022-08-06T14:17:49;27.50
56484;DS18B20;42385;0.000;0.000;2022-08-06T14:20:52;27.44
56484;DS18B20;42385;0.000;0.000;2022-08-06T14:23:55;27.38
56484;DS18B20;42385;0.000;0.000;2022-08-06T14:27:02;27.50
56484;DS18B20;42385;0.000;0.000;2022-08-06T14:30:17;27.63
56484;DS18B20;42385;0.000;0.000;2022-08-06T14:33:31;27.50
56484;DS18B20;42385;0.000;0.000;2022-08-06T14:36:39;27.56
56484;DS18B20;42385;0.000;0.000;2022-08-06T14:39:42;27.69
56484;DS18B20;42385;0.000;0.000;2022-08-06T14:43:01;27.50
56484;DS18B20;42385;0.000;0.000;2022-08-06T14:46:22;27.63
56484;DS18B20;42385;0.000;0.000;2022-08-06T14:49:27;27.63
56484;DS18B20;42385;0.000;0.000;2022-08-06T14:52:49;27.44
56484;DS18B20;42385;0.000;0.000;2022-08-06T14:55:55;27.63
56484;DS18B20;42385;0.000;0.000;2022-08-06T14:59:09;27.81
56484;DS18B20;42385;0.000;0.000;2022-08-06T15:02:11;27.69
56484;DS18B20;42385;0.000;0.000;2022-08-06T15:05:15;27.81
56484;DS18B20;42385;0.000;0.000;2022-08-06T15:08:38;27.88
56484;DS18B20;42385;0.000;0.000;2022-08-06T15:11:50;27.88
56484;DS18B20;42385;0.000;0.000;2022-08-06T15:15:04;27.94
56484;DS18B20;42385;0.000;0.000;2022-08-06T15:18:15;28.00
56484;DS18B20;42385;0.000;0.000;2022-08-06T15:21:38;28.06
56484;DS18B20;42385;0.000;0.000;2022-08-06T15:24:52;28.19
56484;DS18B20;42385;0.000;0.000;2022-08-06T15:27:55;28.19
56484;DS18B20;42385;0.000;0.000;2022-08-06T15:30:58;28.19
56484;DS18B20;42385;0.000;0.000;2022-08-06T15:34:01;28.13
56484;DS18B20;42385;0.000;0.000;2022-08-06T15:37:07;28.19
56484;DS18B20;42385;0.000;0.000;2022-08-06T15:40:29;28.13
56484;DS18B20;42385;0.000;0.000;2022-08-06T15:43:33;28.13
56484;DS18B20;42385;0.000;0.000;2022-08-06T15:46:46;28.13
56484;DS18B20;42385;0.000;0.000;2022-08-06T15:49:48;28.06
56484;DS18B20;42385;0.000;0.000;2022-08-06T15:53:05;28.00
56484;DS18B20;42385;0.000;0.000;2022-08-06T15:56:25;27.88
56484;DS18B20;42385;0.000;0.000;2022-08-06T15:59:35;27.81
56484;DS18B20;42385;0.000;0.000;2022-08-06T16:02:53;27.81
56484;DS18B20;42385;0.000;0.000;2022-08-06T16:05:56;27.81
56484;DS18B20;42385;0.000;0.000;2022-08-06T16:09:13;27.94
56484;DS18B20;42385;0.000;0.000;2022-08-06T16:12:29;27.88
56484;DS18B20;42385;0.000;0.000;2022-08-06T16:15:31;27.75
56484;DS18B20;42385;0.000;0.000;2022-08-06T16:18:39;27.69
56484;DS18B20;42385;0.000;0.000;2022-08-06T16:21:53;27.69
56484;DS18B20;42385;0.000;0.000;2022-08-06T16:24:57;27.69
56484;DS18B20;42385;0.000;0.000;2022-08-06T16:27:59;27.69
56484;DS18B20;42385;0.000;0.000;2022-08-06T16:31:02;27.63
56484;DS18B20;42385;0.000;0.000;2022-08-06T16:34:17;27.63
56484;DS18B20;42385;0.000;0.000;2022-08-06T16:37:30;27.56
56484;DS18B20;42385;0.000;0.000;2022-08-06T16:40:38;27.56
56484;DS18B20;42385;0.000;0.000;2022-08-06T16:43:49;27.63
56484;DS18B20;42385;0.000;0.000;2022-08-06T16:46:54;27.63
56484;DS18B20;42385;0.000;0.000;2022-08-06T16:49:59;27.69
56484;DS18B20;42385;0.000;0.000;2022-08-06T16:53:21;27.63
56484;DS18B20;42385;0.000;0.000;2022-08-06T16:56:43;27.69
56484;DS18B20;42385;0.000;0.000;2022-08-06T16:59:48;27.63
56484;DS18B20;42385;0.000;0.000;2022-08-06T17:03:00;27.63
56484;DS18B20;42385;0.000;0.000;2022-08-06T17:06:09;27.56
56484;DS18B20;42385;0.000;0.000;2022-08-06T17:09:18;27.56
56484;DS18B20;42385;0.000;0.000;2022-08-06T17:12:21;27.50
56484;DS18B20;42385;0.000;0.000;2022-08-06T17:15:28;27.50
56484;DS18B20;42385;0.000;0.000;2022-08-06T17:18:37;27.44
56484;DS18B20;42385;0.000;0.000;2022-08-06T17:21:39;27.38
56484;DS18B20;42385;0.000;0.000;2022-08-06T17:25:01;27.38
56484;DS18B20;42385;0.000;0.000;2022-08-06T17:28:04;27.38
56484;DS18B20;42385;0.000;0.000;2022-08-06T17:31:11;27.31
56484;DS18B20;42385;0.000;0.000;2022-08-06T17:34:14;27.31
56484;DS18B20;42385;0.000;0.000;2022-08-06T17:37:20;27.25
56484;DS18B20;42385;0.000;0.000;2022-08-06T17:40:43;27.25
56484;DS18B20;42385;0.000;0.000;2022-08-06T17:43:50;27.25
56484;DS18B20;42385;0.000;0.000;2022-08-06T17:46:58;27.25
56484;DS18B20;42385;0.000;0.000;2022-08-06T17:50:01;27.25
56484;DS18B20;42385;0.000;0.000;2022-08-06T17:53:07;27.25
56484;DS18B20;42385;0.000;0.000;2022-08-06T17:56:23;27.19
56484;DS18B20;42385;0.000;0.000;2022-08-06T17:59:33;27.19
56484;DS18B20;42385;0.000;0.000;2022-08-06T18:02:46;27.19
56484;DS18B20;42385;0.000;0.000;2022-08-06T18:05:53;27.19
56484;DS18B20;42385;0.000;0.000;2022-08-06T18:08:57;27.19
56484;DS18B20;42385;0.000;0.000;2022-08-06T18:12:19;27.13
56484;DS18B20;42385;0.000;0.000;2022-08-06T18:15:27;27.19
56484;DS18B20;42385;0.000;0.000;2022-08-06T18:18:50;27.13
56484;DS18B20;42385;0.000;0.000;2022-08-06T18:21:52;27.13
56484;DS18B20;42385;0.000;0.000;2022-08-06T18:24:55;27.13
56484;DS18B20;42385;0.000;0.000;2022-08-06T18:27:59;27.13
56484;DS18B20;42385;0.000;0.000;2022-08-06T18:31:06;27.13
56484;DS18B20;42385;0.000;0.000;2022-08-06T18:34:11;27.06
56484;DS18B20;42385;0.000;0.000;2022-08-06T18:37:19;27.00
56484;DS18B20;42385;0.000;0.000;2022-08-06T18:40:26;27.06
56484;DS18B20;42385;0.000;0.000;2022-08-06T18:43:42;27.06
56484;DS18B20;42385;0.000;0.000;2022-08-06T18:46:56;27.06
56484;DS18B20;42385;0.000;0.000;2022-08-06T18:50:14;27.06
56484;DS18B20;42385;0.000;0.000;2022-08-06T18:53:16;27.00
56484;DS18B20;42385;0.000;0.000;2022-08-06T18:56:39;26.94
56484;DS18B20;42385;0.000;0.000;2022-08-06T18:59:43;26.94
56484;DS18B20;42385;0.000;0.000;2022-08-06T19:02:53;27.00
56484;DS18B20;42385;0.000;0.000;2022-08-06T19:05:56;27.00
56484;DS18B20;42385;0.000;0.000;2022-08-06T19:08:59;26.94
56484;DS18B20;42385;0.000;0.000;2022-08-06T19:12:11;26.94
56484;DS18B20;42385;0.000;0.000;2022-08-06T19:15:21;26.94
56484;DS18B20;42385;0.000;0.000;2022-08-06T19:18:25;26.88
56484;DS18B20;42385;0.000;0.000;2022-08-06T19:21:27;26.88
56484;DS18B20;42385;0.000;0.000;2022-08-06T19:24:31;26.88
56484;DS18B20;42385;0.000;0.000;2022-08-06T19:27:38;26.88
56484;DS18B20;42385;0.000;0.000;2022-08-06T19:31:01;26.88
56484;DS18B20;42385;0.000;0.000;2022-08-06T19:34:07;26.81
56484;DS18B20;42385;0.000;0.000;2022-08-06T19:37:15;26.88
56484;DS18B20;42385;0.000;0.000;2022-08-06T19:40:38;26.81
56484;DS18B20;42385;0.000;0.000;2022-08-06T19:43:54;26.81
56484;DS18B20;42385;0.000;0.000;2022-08-06T19:47:16;26.81
56484;DS18B20;42385;0.000;0.000;2022-08-06T19:50:22;26.81
56484;DS18B20;42385;0.000;0.000;2022-08-06T19:53:29;26.81
56484;DS18B20;42385;0.000;0.000;2022-08-06T19:56:34;26.81
56484;DS18B20;42385;0.000;0.000;2022-08-06T19:59:37;26.75
56484;DS18B20;42385;0.000;0.000;2022-08-06T20:02:59;26.75
56484;DS18B20;42385;0.000;0.000;2022-08-06T20:06:02;26.75
56484;DS18B20;42385;0.000;0.000;2022-08-06T20:09:24;26.75
56484;DS18B20;42385;0.000;0.000;2022-08-06T20:12:50;26.75
56484;DS18B20;42385;0.000;0.000;2022-08-06T20:15:52;26.69
56484;DS18B20;42385;0.000;0.000;2022-08-06T20:18:55;26.69
56484;DS18B20;42385;0.000;0.000;2022-08-06T20:22:00;26.75
56484;DS18B20;42385;0.000;0.000;2022-08-06T20:25:03;26.69
56484;DS18B20;42385;0.000;0.000;2022-08-06T20:28:28;26.69
56484;DS18B20;42385;0.000;0.000;2022-08-06T20:31:50;26.69
56484;DS18B20;42385;0.000;0.000;2022-08-06T20:34:56;26.63
56484;DS18B20;42385;0.000;0.000;2022-08-06T20:37:59;26.63
56484;DS18B20;42385;0.000;0.000;2022-08-06T20:41:08;26.63
56484;DS18B20;42385;0.000;0.000;2022-08-06T20:44:30;26.63
56484;DS18B20;42385;0.000;0.000;2022-08-06T20:47:33;26.63
56484;DS18B20;42385;0.000;0.000;2022-08-06T20:50:55;26.56
56484;DS18B20;42385;0.000;0.000;2022-08-06T20:53:57;26.56
56484;DS18B20;42385;0.000;0.000;2022-08-06T20:57:19;26.56
56484;DS18B20;42385;0.000;0.000;2022-08-06T21:00:29;26.56
56484;DS18B20;42385;0.000;0.000;2022-08-06T21:03:32;26.50
56484;DS18B20;42385;0.000;0.000;2022-08-06T21:06:54;26.56
56484;DS18B20;42385;0.000;0.000;2022-08-06T21:09:57;26.56
56484;DS18B20;42385;0.000;0.000;2022-08-06T21:13:02;26.56
56484;DS18B20;42385;0.000;0.000;2022-08-06T21:16:10;26.56
56484;DS18B20;42385;0.000;0.000;2022-08-06T21:19:23;26.56
56484;DS18B20;42385;0.000;0.000;2022-08-06T21:22:42;26.44
56484;DS18B20;42385;0.000;0.000;2022-08-06T21:25:47;26.50
56484;DS18B20;42385;0.000;0.000;2022-08-06T21:28:50;26.50
56484;DS18B20;42385;0.000;0.000;2022-08-06T21:31:57;26.44
56484;DS18B20;42385;0.000;0.000;2022-08-06T21:34:59;26.50
56484;DS18B20;42385;0.000;0.000;2022-08-06T21:38:01;26.44
56484;DS18B20;42385;0.000;0.000;2022-08-06T21:41:11;26.44
56484;DS18B20;42385;0.000;0.000;2022-08-06T21:44:51;26.38
56484;DS18B20;42385;0.000;0.000;2022-08-06T21:47:53;26.44
56484;DS18B20;42385;0.000;0.000;2022-08-06T21:50:56;26.44
56484;DS18B20;42385;0.000;0.000;2022-08-06T21:54:02;26.44
56484;DS18B20;42385;0.000;0.000;2022-08-06T21:57:04;26.38
56484;DS18B20;42385;0.000;0.000;2022-08-06T22:00:20;26.38
56484;DS18B20;42385;0.000;0.000;2022-08-06T22:03:41;26.38
56484;DS18B20;42385;0.000;0.000;2022-08-06T22:07:03;26.38
56484;DS18B20;42385;0.000;0.000;2022-08-06T22:10:06;26.31
56484;DS18B20;42385;0.000;0.000;2022-08-06T22:13:08;26.38
56484;DS18B20;42385;0.000;0.000;2022-08-06T22:16:16;26.31
56484;DS18B20;42385;0.000;0.000;2022-08-06T22:19:35;26.38
56484;DS18B20;42385;0.000;0.000;2022-08-06T22:22:44;26.19
56484;DS18B20;42385;0.000;0.000;2022-08-06T22:25:53;25.69
56484;DS18B20;42385;0.000;0.000;2022-08-06T22:28:57;25.50
56484;DS18B20;42385;0.000;0.000;2022-08-06T22:32:01;25.38